sensor_id;sensor_type;location;lat;lon;timestamp;temperature;humidity
19970;DHT22;10146;47.754;9.566;2023-02-13T00:02:04;2.00;99.90
19970;DHT22;10146;47.754;9.566;2023-02-13T00:04:30;2.10;99.90
19970;DHT22;10146;47.754;9.566;2023-02-13T00:06:56;2.20;99.90
19970;DHT22;10146;47.754;9.566;2023-02-13T00:09:21;2.10;99.90
19970;DHT22;10146;47.754;9.566;2023-02-13T00:11:47;2.00;99.90
19970;DHT22;10146;47.754;9.566;2023-02-13T00:14:12;2.10;99.90
19970;DHT22;10146;47.754;9.566;2023-02-13T00:16:38;2.00;99.90
19970;DHT22;10146;47.754;9.566;2023-02-13T00:19:04;2.10;99.90
19970;DHT22;10146;47.754;9.566;2023-02-13T00:21:29;2.10;99.90
19970;DHT22;10146;47.754;9.566;2023-02-13T00:23:55;2.10;99.90
19970;DHT22;10146;47.754;9.566;2023-02-13T00:26:20;2.20;99.90
19970;DHT22;10146;47.754;9.566;2023-02-13T00:28:46;2.30;99.90
19970;DHT22;10146;47.754;9.566;2023-02-13T00:31:16;2.30;99.90
19970;DHT22;10146;47.754;9.566;2023-02-13T00:33:42;2.40;99.90
19970;DHT22;10146;47.754;9.566;2023-02-13T00:36:09;2.40;99.90
19970;DHT22;10146;47.754;9.566;2023-02-13T00:38:37;2.40;99.90
19970;DHT22;10146;47.754;9.566;2023-02-13T00:41:03;2.60;99.90
19970;DHT22;10146;47.754;9.566;2023-02-13T00:43:29;2.60;99.90
19970;DHT22;10146;47.754;9.566;2023-02-13T00:45:55;2.70;99.90
19970;DHT22;10146;47.754;9.566;2023-02-13T00:48:20;2.60;99.90
19970;DHT22;10146;47.754;9.566;2023-02-13T00:50:46;2.40;99.90
19970;DHT22;10146;47.754;9.566;2023-02-13T00:53:12;2.60;99.90
19970;DHT22;10146;47.754;9.566;2023-02-13T00:55:38;2.70;99.90
19970;DHT22;10146;47.754;9.566;2023-02-13T00:58:04;2.60;99.90
19970;DHT22;10146;47.754;9.566;2023-02-13T01:00:29;2.70;99.90
19970;DHT22;10146;47.754;9.566;2023-02-13T01:02:55;2.60;99.90
19970;DHT22;10146;47.754;9.566;2023-02-13T01:05:20;2.60;99.90
19970;DHT22;10146;47.754;9.566;2023-02-13T01:07:46;2.40;99.90
19970;DHT22;10146;47.754;9.566;2023-02-13T01:10:12;2.50;99.90
19970;DHT22;10146;47.754;9.566;2023-02-13T01:12:37;2.50;99.90
19970;DHT22;10146;47.754;9.566;2023-02-13T01:15:04;2.60;99.90
19970;DHT22;10146;47.754;9.566;2023-02-13T01:17:30;2.50;99.90
19970;DHT22;10146;47.754;9.566;2023-02-13T01:19:55;2.50;99.90
19970;DHT22;10146;47.754;9.566;2023-02-13T01:22:21;2.70;99.90
19970;DHT22;10146;47.754;9.566;2023-02-13T01:24:47;2.70;99.90
19970;DHT22;10146;47.754;9.566;2023-02-13T01:27:12;2.70;99.90
19970;DHT22;10146;47.754;9.566;2023-02-13T01:29:38;2.60;99.90
19970;DHT22;10146;47.754;9.566;2023-02-13T01:32:03;2.60;99.90
19970;DHT22;10146;47.754;9.566;2023-02-13T01:34:31;2.50;99.90
19970;DHT22;10146;47.754;9.566;2023-02-13T01:36:57;2.60;99.90
19970;DHT22;10146;47.754;9.566;2023-02-13T01:39:22;2.60;99.90
19970;DHT22;10146;47.754;9.566;2023-02-13T01:41:48;2.70;99.90
19970;DHT22;10146;47.754;9.566;2023-02-13T01:50:10;2.60;99.90
19970;DHT22;10146;47.754;9.566;2023-02-13T01:52:39;2.60;99.90
19970;DHT22;10146;47.754;9.566;2023-02-13T01:55:06;2.60;99.90
19970;DHT22;10146;47.754;9.566;2023-02-13T01:57:33;2.70;99.90
19970;DHT22;10146;47.754;9.566;2023-02-13T02:00:06;2.80;99.90
19970;DHT22;10146;47.754;9.566;2023-02-13T02:02:38;2.80;99.90
19970;DHT22;10146;47.754;9.566;2023-02-13T02:05:05;2.70;99.90
19970;DHT22;10146;47.754;9.566;2023-02-13T02:07:32;2.70;99.90
19970;DHT22;10146;47.754;9.566;2023-02-13T02:10:02;2.70;99.90
19970;DHT22;10146;47.754;9.566;2023-02-13T02:12:37;2.70;99.90
19970;DHT22;10146;47.754;9.566;2023-02-13T02:15:07;2.70;99.90
19970;DHT22;10146;47.754;9.566;2023-02-13T02:17:33;2.70;99.90
19970;DHT22;10146;47.754;9.566;2023-02-13T02:39:34;2.50;99.90
19970;DHT22;10146;47.754;9.566;2023-02-13T02:44:44;2.40;99.90
19970;DHT22;10146;47.754;9.566;2023-02-13T02:47:41;2.40;99.90
19970;DHT22;10146;47.754;9.566;2023-02-13T02:53:42;2.50;99.90
19970;DHT22;10146;47.754;9.566;2023-02-13T02:56:17;2.50;99.90
19970;DHT22;10146;47.754;9.566;2023-02-13T03:02:02;2.50;99.90
19970;DHT22;10146;47.754;9.566;2023-02-13T03:04:50;2.50;99.90
19970;DHT22;10146;47.754;9.566;2023-02-13T03:07:36;2.50;99.90
19970;DHT22;10146;47.754;9.566;2023-02-13T03:10:08;2.50;99.90
19970;DHT22;10146;47.754;9.566;2023-02-13T03:15:41;2.40;99.90
19970;DHT22;10146;47.754;9.566;2023-02-13T03:18:27;2.40;99.90
19970;DHT22;10146;47.754;9.566;2023-02-13T03:21:22;2.40;99.90
19970;DHT22;10146;47.754;9.566;2023-02-13T03:24:16;2.40;99.90
19970;DHT22;10146;47.754;9.566;2023-02-13T03:26:56;2.40;99.90
19970;DHT22;10146;47.754;9.566;2023-02-13T03:29:50;2.40;99.90
19970;DHT22;10146;47.754;9.566;2023-02-13T03:35:49;2.30;99.90
19970;DHT22;10146;47.754;9.566;2023-02-13T03:41:13;2.30;99.90
19970;DHT22;10146;47.754;9.566;2023-02-13T03:43:54;2.40;99.90
19970;DHT22;10146;47.754;9.566;2023-02-13T03:46:21;2.40;99.90
19970;DHT22;10146;47.754;9.566;2023-02-13T03:48:48;2.40;99.90
19970;DHT22;10146;47.754;9.566;2023-02-13T03:51:43;2.40;99.90
19970;DHT22;10146;47.754;9.566;2023-02-13T03:54:42;2.40;99.90
19970;DHT22;10146;47.754;9.566;2023-02-13T03:57:29;2.40;99.90
19970;DHT22;10146;47.754;9.566;2023-02-13T04:00:16;2.40;99.90
19970;DHT22;10146;47.754;9.566;2023-02-13T04:05:53;2.30;99.90
19970;DHT22;10146;47.754;9.566;2023-02-13T04:08:19;2.40;99.90
19970;DHT22;10146;47.754;9.566;2023-02-13T04:10:51;2.40;99.90
19970;DHT22;10146;47.754;9.566;2023-02-13T04:16:05;2.40;99.90
19970;DHT22;10146;47.754;9.566;2023-02-13T04:18:34;2.40;99.90
19970;DHT22;10146;47.754;9.566;2023-02-13T04:21:04;2.40;99.90
19970;DHT22;10146;47.754;9.566;2023-02-13T04:23:30;2.50;99.90
19970;DHT22;10146;47.754;9.566;2023-02-13T04:25:56;2.50;99.90
19970;DHT22;10146;47.754;9.566;2023-02-13T04:28:24;2.50;99.90
19970;DHT22;10146;47.754;9.566;2023-02-13T04:30:50;2.50;99.90
19970;DHT22;10146;47.754;9.566;2023-02-13T04:33:16;2.50;99.90
19970;DHT22;10146;47.754;9.566;2023-02-13T04:35:41;2.50;99.90
19970;DHT22;10146;47.754;9.566;2023-02-13T04:38:07;2.50;99.90
19970;DHT22;10146;47.754;9.566;2023-02-13T04:40:32;2.40;99.90
19970;DHT22;10146;47.754;9.566;2023-02-13T04:42:58;2.40;99.90
19970;DHT22;10146;47.754;9.566;2023-02-13T04:45:24;2.40;99.90
19970;DHT22;10146;47.754;9.566;2023-02-13T04:47:53;2.40;99.90
19970;DHT22;10146;47.754;9.566;2023-02-13T04:50:20;2.50;99.90
19970;DHT22;10146;47.754;9.566;2023-02-13T04:52:46;2.40;99.90
19970;DHT22;10146;47.754;9.566;2023-02-13T04:55:12;2.40;99.90
19970;DHT22;10146;47.754;9.566;2023-02-13T04:57:37;2.40;99.90
19970;DHT22;10146;47.754;9.566;2023-02-13T05:00:05;2.30;99.90
19970;DHT22;10146;47.754;9.566;2023-02-13T05:02:30;2.40;99.90
19970;DHT22;10146;47.754;9.566;2023-02-13T05:04:56;2.50;99.90
19970;DHT22;10146;47.754;9.566;2023-02-13T05:07:22;2.50;99.90
19970;DHT22;10146;47.754;9.566;2023-02-13T05:09:47;2.60;99.90
19970;DHT22;10146;47.754;9.566;2023-02-13T05:12:13;2.50;99.90
19970;DHT22;10146;47.754;9.566;2023-02-13T05:14:38;2.60;99.90
19970;DHT22;10146;47.754;9.566;2023-02-13T05:17:04;2.50;99.90
19970;DHT22;10146;47.754;9.566;2023-02-13T05:19:30;2.60;99.90
19970;DHT22;10146;47.754;9.566;2023-02-13T05:21:55;2.50;99.90
19970;DHT22;10146;47.754;9.566;2023-02-13T05:24:39;2.60;99.90
19970;DHT22;10146;47.754;9.566;2023-02-13T05:27:05;2.60;99.90
19970;DHT22;10146;47.754;9.566;2023-02-13T05:29:30;2.70;99.90
19970;DHT22;10146;47.754;9.566;2023-02-13T05:31:57;2.60;99.90
19970;DHT22;10146;47.754;9.566;2023-02-13T05:34:26;2.60;99.90
19970;DHT22;10146;47.754;9.566;2023-02-13T05:36:52;2.60;99.90
19970;DHT22;10146;47.754;9.566;2023-02-13T05:39:18;2.70;99.90
19970;DHT22;10146;47.754;9.566;2023-02-13T05:41:44;2.70;99.90
19970;DHT22;10146;47.754;9.566;2023-02-13T05:44:10;2.80;99.90
19970;DHT22;10146;47.754;9.566;2023-02-13T05:46:37;2.80;99.90
19970;DHT22;10146;47.754;9.566;2023-02-13T05:49:04;2.60;99.90
19970;DHT22;10146;47.754;9.566;2023-02-13T05:51:30;2.50;99.90
19970;DHT22;10146;47.754;9.566;2023-02-13T05:53:55;2.40;99.90
19970;DHT22;10146;47.754;9.566;2023-02-13T05:56:21;2.40;99.90
19970;DHT22;10146;47.754;9.566;2023-02-13T05:58:50;2.40;99.90
19970;DHT22;10146;47.754;9.566;2023-02-13T06:01:17;2.20;99.90
19970;DHT22;10146;47.754;9.566;2023-02-13T06:03:42;2.20;99.90
19970;DHT22;10146;47.754;9.566;2023-02-13T06:06:10;2.30;99.90
19970;DHT22;10146;47.754;9.566;2023-02-13T06:08:36;2.30;99.90
19970;DHT22;10146;47.754;9.566;2023-02-13T06:11:05;2.40;99.90
19970;DHT22;10146;47.754;9.566;2023-02-13T06:13:31;2.50;99.90
19970;DHT22;10146;47.754;9.566;2023-02-13T06:15:56;2.40;99.90
19970;DHT22;10146;47.754;9.566;2023-02-13T06:18:22;2.30;99.90
19970;DHT22;10146;47.754;9.566;2023-02-13T06:20:48;2.30;99.90
19970;DHT22;10146;47.754;9.566;2023-02-13T06:23:14;2.40;99.90
19970;DHT22;10146;47.754;9.566;2023-02-13T06:25:40;2.40;99.90
19970;DHT22;10146;47.754;9.566;2023-02-13T06:28:05;2.30;99.90
19970;DHT22;10146;47.754;9.566;2023-02-13T06:30:32;2.40;99.90
19970;DHT22;10146;47.754;9.566;2023-02-13T06:32:58;2.40;99.90
19970;DHT22;10146;47.754;9.566;2023-02-13T06:35:24;2.50;99.90
19970;DHT22;10146;47.754;9.566;2023-02-13T06:37:49;2.60;99.90
19970;DHT22;10146;47.754;9.566;2023-02-13T06:40:15;2.60;99.90
19970;DHT22;10146;47.754;9.566;2023-02-13T06:42:42;2.50;99.90
19970;DHT22;10146;47.754;9.566;2023-02-13T06:45:09;2.40;99.90
19970;DHT22;10146;47.754;9.566;2023-02-13T06:47:34;2.40;99.90
19970;DHT22;10146;47.754;9.566;2023-02-13T06:50:00;2.40;99.90
19970;DHT22;10146;47.754;9.566;2023-02-13T06:52:26;2.30;99.90
19970;DHT22;10146;47.754;9.566;2023-02-13T06:55:01;2.30;99.90
19970;DHT22;10146;47.754;9.566;2023-02-13T06:57:26;2.30;99.90
19970;DHT22;10146;47.754;9.566;2023-02-13T06:59:54;2.40;99.90
19970;DHT22;10146;47.754;9.566;2023-02-13T07:02:19;2.60;99.90
19970;DHT22;10146;47.754;9.566;2023-02-13T07:04:45;2.60;99.90
19970;DHT22;10146;47.754;9.566;2023-02-13T07:07:11;2.50;99.90
19970;DHT22;10146;47.754;9.566;2023-02-13T07:09:36;2.60;99.90
19970;DHT22;10146;47.754;9.566;2023-02-13T07:12:03;2.50;99.90
19970;DHT22;10146;47.754;9.566;2023-02-13T07:14:29;2.50;99.90
19970;DHT22;10146;47.754;9.566;2023-02-13T07:16:54;2.60;99.90
19970;DHT22;10146;47.754;9.566;2023-02-13T07:19:20;2.60;99.90
19970;DHT22;10146;47.754;9.566;2023-02-13T07:21:45;2.60;99.90
19970;DHT22;10146;47.754;9.566;2023-02-13T07:24:11;2.60;99.90
19970;DHT22;10146;47.754;9.566;2023-02-13T07:26:36;2.50;99.90
19970;DHT22;10146;47.754;9.566;2023-02-13T07:29:02;2.50;99.90
19970;DHT22;10146;47.754;9.566;2023-02-13T07:31:32;2.40;99.90
19970;DHT22;10146;47.754;9.566;2023-02-13T07:33:58;2.40;99.90
19970;DHT22;10146;47.754;9.566;2023-02-13T07:36:24;2.60;99.90
19970;DHT22;10146;47.754;9.566;2023-02-13T07:38:50;2.60;99.90
19970;DHT22;10146;47.754;9.566;2023-02-13T07:41:16;2.50;99.90
19970;DHT22;10146;47.754;9.566;2023-02-13T07:43:41;2.40;99.90
19970;DHT22;10146;47.754;9.566;2023-02-13T07:46:08;2.60;99.90
19970;DHT22;10146;47.754;9.566;2023-02-13T07:48:33;2.70;99.90
19970;DHT22;10146;47.754;9.566;2023-02-13T07:51:01;2.80;99.90
19970;DHT22;10146;47.754;9.566;2023-02-13T07:53:26;2.80;99.90
19970;DHT22;10146;47.754;9.566;2023-02-13T07:55:52;2.70;99.90
19970;DHT22;10146;47.754;9.566;2023-02-13T07:58:17;2.60;99.90
19970;DHT22;10146;47.754;9.566;2023-02-13T08:00:43;2.80;99.90
19970;DHT22;10146;47.754;9.566;2023-02-13T08:03:09;2.70;99.90
19970;DHT22;10146;47.754;9.566;2023-02-13T08:05:34;2.70;99.90
19970;DHT22;10146;47.754;9.566;2023-02-13T08:08:00;2.80;99.90
19970;DHT22;10146;47.754;9.566;2023-02-13T08:10:26;2.70;99.90
19970;DHT22;10146;47.754;9.566;2023-02-13T08:13:11;2.50;99.90
19970;DHT22;10146;47.754;9.566;2023-02-13T08:15:38;2.60;99.90
19970;DHT22;10146;47.754;9.566;2023-02-13T08:18:04;2.70;99.90
19970;DHT22;10146;47.754;9.566;2023-02-13T08:20:29;2.60;99.90
19970;DHT22;10146;47.754;9.566;2023-02-13T08:23:02;2.70;99.90
19970;DHT22;10146;47.754;9.566;2023-02-13T08:25:28;2.70;99.90
19970;DHT22;10146;47.754;9.566;2023-02-13T08:27:54;2.80;99.90
19970;DHT22;10146;47.754;9.566;2023-02-13T08:30:20;2.70;99.90
19970;DHT22;10146;47.754;9.566;2023-02-13T08:32:46;2.60;99.90
19970;DHT22;10146;47.754;9.566;2023-02-13T08:35:11;2.60;99.90
19970;DHT22;10146;47.754;9.566;2023-02-13T08:37:37;2.60;99.90
19970;DHT22;10146;47.754;9.566;2023-02-13T08:40:03;2.60;99.90
19970;DHT22;10146;47.754;9.566;2023-02-13T08:42:29;2.80;99.90
19970;DHT22;10146;47.754;9.566;2023-02-13T08:44:54;2.90;99.90
19970;DHT22;10146;47.754;9.566;2023-02-13T08:47:20;3.00;99.90
19970;DHT22;10146;47.754;9.566;2023-02-13T08:49:45;3.00;99.90
19970;DHT22;10146;47.754;9.566;2023-02-13T08:52:11;3.30;99.90
19970;DHT22;10146;47.754;9.566;2023-02-13T08:54:36;3.30;99.90
19970;DHT22;10146;47.754;9.566;2023-02-13T08:57:02;3.30;99.90
19970;DHT22;10146;47.754;9.566;2023-02-13T08:59:28;3.30;99.90
19970;DHT22;10146;47.754;9.566;2023-02-13T09:01:54;3.40;99.90
19970;DHT22;10146;47.754;9.566;2023-02-13T09:04:19;3.50;99.90
19970;DHT22;10146;47.754;9.566;2023-02-13T09:06:45;3.50;99.90
19970;DHT22;10146;47.754;9.566;2023-02-13T09:09:11;3.30;99.90
19970;DHT22;10146;47.754;9.566;2023-02-13T09:11:36;3.50;99.90
19970;DHT22;10146;47.754;9.566;2023-02-13T09:14:02;3.40;99.90
19970;DHT22;10146;47.754;9.566;2023-02-13T09:16:27;3.50;99.90
19970;DHT22;10146;47.754;9.566;2023-02-13T09:18:53;3.60;99.90
19970;DHT22;10146;47.754;9.566;2023-02-13T09:21:20;3.60;99.90
19970;DHT22;10146;47.754;9.566;2023-02-13T09:23:47;3.50;99.90
19970;DHT22;10146;47.754;9.566;2023-02-13T09:26:13;3.60;99.90
19970;DHT22;10146;47.754;9.566;2023-02-13T09:28:40;3.50;99.90
19970;DHT22;10146;47.754;9.566;2023-02-13T09:31:17;3.60;99.90
19970;DHT22;10146;47.754;9.566;2023-02-13T09:33:44;3.70;99.90
19970;DHT22;10146;47.754;9.566;2023-02-13T09:36:12;3.50;99.90
19970;DHT22;10146;47.754;9.566;2023-02-13T09:38:43;3.60;99.90
19970;DHT22;10146;47.754;9.566;2023-02-13T09:41:21;3.50;99.90
19970;DHT22;10146;47.754;9.566;2023-02-13T09:44:00;3.60;99.90
19970;DHT22;10146;47.754;9.566;2023-02-13T09:46:39;3.60;99.90
19970;DHT22;10146;47.754;9.566;2023-02-13T09:49:18;3.70;99.90
19970;DHT22;10146;47.754;9.566;2023-02-13T09:51:47;3.70;99.90
19970;DHT22;10146;47.754;9.566;2023-02-13T09:54:16;3.70;99.90
19970;DHT22;10146;47.754;9.566;2023-02-13T10:03:13;3.70;99.90
19970;DHT22;10146;47.754;9.566;2023-02-13T10:11:33;3.50;99.90
19970;DHT22;10146;47.754;9.566;2023-02-13T10:16:50;3.60;99.90
19970;DHT22;10146;47.754;9.566;2023-02-13T10:19:43;3.80;99.90
19970;DHT22;10146;47.754;9.566;2023-02-13T10:22:17;3.90;99.90
19970;DHT22;10146;47.754;9.566;2023-02-13T10:27:23;3.90;99.90
19970;DHT22;10146;47.754;9.566;2023-02-13T10:30:02;3.70;99.90
19970;DHT22;10146;47.754;9.566;2023-02-13T10:33:01;4.00;99.90
19970;DHT22;10146;47.754;9.566;2023-02-13T10:36:45;4.00;99.90
19970;DHT22;10146;47.754;9.566;2023-02-13T10:38:59;3.90;99.90
19970;DHT22;10146;47.754;9.566;2023-02-13T10:50:11;4.20;99.90
19970;DHT22;10146;47.754;9.566;2023-02-13T10:52:56;4.10;99.90
19970;DHT22;10146;47.754;9.566;2023-02-13T10:55:51;3.90;99.90
19970;DHT22;10146;47.754;9.566;2023-02-13T10:58:24;4.00;99.90
19970;DHT22;10146;47.754;9.566;2023-02-13T11:01:02;4.00;99.90
19970;DHT22;10146;47.754;9.566;2023-02-13T11:03:31;3.80;99.90
19970;DHT22;10146;47.754;9.566;2023-02-13T11:05:58;3.90;99.90
19970;DHT22;10146;47.754;9.566;2023-02-13T11:08:55;4.10;99.90
19970;DHT22;10146;47.754;9.566;2023-02-13T11:11:31;4.20;99.90
19970;DHT22;10146;47.754;9.566;2023-02-13T11:14:18;4.20;99.90
19970;DHT22;10146;47.754;9.566;2023-02-13T11:16:57;4.30;99.90
19970;DHT22;10146;47.754;9.566;2023-02-13T11:19:38;4.40;99.90
19970;DHT22;10146;47.754;9.566;2023-02-13T11:22:11;4.40;99.90
19970;DHT22;10146;47.754;9.566;2023-02-13T11:24:40;4.30;99.90
19970;DHT22;10146;47.754;9.566;2023-02-13T11:27:08;4.50;99.90
19970;DHT22;10146;47.754;9.566;2023-02-13T11:29:54;4.60;99.90
19970;DHT22;10146;47.754;9.566;2023-02-13T11:32:23;4.50;99.90
19970;DHT22;10146;47.754;9.566;2023-02-13T11:34:49;4.50;99.90
19970;DHT22;10146;47.754;9.566;2023-02-13T11:37:18;4.60;99.90
19970;DHT22;10146;47.754;9.566;2023-02-13T11:39:46;4.80;99.90
19970;DHT22;10146;47.754;9.566;2023-02-13T11:42:33;4.90;99.90
19970;DHT22;10146;47.754;9.566;2023-02-13T11:45:14;5.00;99.90
19970;DHT22;10146;47.754;9.566;2023-02-13T11:47:44;5.00;99.90
19970;DHT22;10146;47.754;9.566;2023-02-13T11:50:25;4.70;99.90
19970;DHT22;10146;47.754;9.566;2023-02-13T11:55:36;5.00;99.90
19970;DHT22;10146;47.754;9.566;2023-02-13T11:58:23;5.00;99.90
19970;DHT22;10146;47.754;9.566;2023-02-13T12:00:49;5.10;99.90
19970;DHT22;10146;47.754;9.566;2023-02-13T12:03:31;5.00;99.90
19970;DHT22;10146;47.754;9.566;2023-02-13T12:08:26;5.00;99.90
19970;DHT22;10146;47.754;9.566;2023-02-13T12:10:52;5.00;99.90
19970;DHT22;10146;47.754;9.566;2023-02-13T12:13:37;5.00;99.90
19970;DHT22;10146;47.754;9.566;2023-02-13T12:16:29;5.10;99.90
19970;DHT22;10146;47.754;9.566;2023-02-13T12:18:59;5.20;99.90
19970;DHT22;10146;47.754;9.566;2023-02-13T12:21:48;5.20;99.90
19970;DHT22;10146;47.754;9.566;2023-02-13T12:24:44;5.10;99.90
19970;DHT22;10146;47.754;9.566;2023-02-13T12:33:03;5.50;99.90
19970;DHT22;10146;47.754;9.566;2023-02-13T12:36:01;5.60;99.90
19970;DHT22;10146;47.754;9.566;2023-02-13T12:38:52;5.90;99.90
19970;DHT22;10146;47.754;9.566;2023-02-13T12:41:44;5.90;99.90
19970;DHT22;10146;47.754;9.566;2023-02-13T12:47:22;5.90;99.90
19970;DHT22;10146;47.754;9.566;2023-02-13T12:55:50;5.30;99.90
19970;DHT22;10146;47.754;9.566;2023-02-13T13:01:08;5.30;99.90
19970;DHT22;10146;47.754;9.566;2023-02-13T13:09:34;5.50;99.90
19970;DHT22;10146;47.754;9.566;2023-02-13T13:22:37;5.90;99.90
19970;DHT22;10146;47.754;9.566;2023-02-13T13:27:43;5.80;99.90
19970;DHT22;10146;47.754;9.566;2023-02-13T13:30:22;5.80;99.90
19970;DHT22;10146;47.754;9.566;2023-02-13T13:35:27;6.20;99.90
19970;DHT22;10146;47.754;9.566;2023-02-13T13:38:19;6.50;99.90
19970;DHT22;10146;47.754;9.566;2023-02-13T13:40:50;6.80;99.90
19970;DHT22;10146;47.754;9.566;2023-02-13T13:43:24;6.90;99.90
19970;DHT22;10146;47.754;9.566;2023-02-13T13:46:19;6.80;99.90
19970;DHT22;10146;47.754;9.566;2023-02-13T13:51:29;6.50;99.90
19970;DHT22;10146;47.754;9.566;2023-02-13T14:07:36;7.00;99.90
19970;DHT22;10146;47.754;9.566;2023-02-13T14:10:03;6.80;99.90
19970;DHT22;10146;47.754;9.566;2023-02-13T14:14:58;6.80;99.90
19970;DHT22;10146;47.754;9.566;2023-02-13T14:20:30;7.10;99.90
19970;DHT22;10146;47.754;9.566;2023-02-13T14:23:27;6.70;99.90
19970;DHT22;10146;47.754;9.566;2023-02-13T14:31:17;6.90;99.90
19970;DHT22;10146;47.754;9.566;2023-02-13T14:36:32;6.60;99.90
19970;DHT22;10146;47.754;9.566;2023-02-13T14:39:05;6.60;99.90
19970;DHT22;10146;47.754;9.566;2023-02-13T14:42:20;6.60;99.90
19970;DHT22;10146;47.754;9.566;2023-02-13T14:44:35;6.40;99.90
19970;DHT22;10146;47.754;9.566;2023-02-13T14:47:05;6.30;99.90
19970;DHT22;10146;47.754;9.566;2023-02-13T14:49:39;6.20;99.90
19970;DHT22;10146;47.754;9.566;2023-02-13T14:52:18;6.40;99.90
19970;DHT22;10146;47.754;9.566;2023-02-13T14:54:49;6.50;99.90
19970;DHT22;10146;47.754;9.566;2023-02-13T14:57:19;6.50;99.90
19970;DHT22;10146;47.754;9.566;2023-02-13T14:59:48;6.70;99.90
19970;DHT22;10146;47.754;9.566;2023-02-13T15:02:32;6.60;99.90
19970;DHT22;10146;47.754;9.566;2023-02-13T15:05:03;6.70;99.90
19970;DHT22;10146;47.754;9.566;2023-02-13T15:07:36;6.70;99.90
19970;DHT22;10146;47.754;9.566;2023-02-13T15:10:33;6.60;99.90
19970;DHT22;10146;47.754;9.566;2023-02-13T15:13:00;6.90;99.90
19970;DHT22;10146;47.754;9.566;2023-02-13T15:15:31;7.00;99.90
19970;DHT22;10146;47.754;9.566;2023-02-13T15:18:08;7.10;99.90
19970;DHT22;10146;47.754;9.566;2023-02-13T15:20:37;7.20;99.90
19970;DHT22;10146;47.754;9.566;2023-02-13T15:23:05;7.50;99.90
19970;DHT22;10146;47.754;9.566;2023-02-13T15:25:38;7.40;99.90
19970;DHT22;10146;47.754;9.566;2023-02-13T15:28:18;7.20;99.90
19970;DHT22;10146;47.754;9.566;2023-02-13T15:31:03;6.80;99.90
19970;DHT22;10146;47.754;9.566;2023-02-13T15:33:47;6.50;99.90
19970;DHT22;10146;47.754;9.566;2023-02-13T15:36:22;6.40;99.90
19970;DHT22;10146;47.754;9.566;2023-02-13T15:39:03;6.10;99.90
19970;DHT22;10146;47.754;9.566;2023-02-13T15:41:36;5.90;99.90
19970;DHT22;10146;47.754;9.566;2023-02-13T15:44:03;6.10;99.90
19970;DHT22;10146;47.754;9.566;2023-02-13T15:46:30;6.10;99.90
19970;DHT22;10146;47.754;9.566;2023-02-13T15:48:59;6.00;99.90
19970;DHT22;10146;47.754;9.566;2023-02-13T15:51:28;6.10;99.90
19970;DHT22;10146;47.754;9.566;2023-02-13T15:54:03;6.10;99.90
19970;DHT22;10146;47.754;9.566;2023-02-13T15:56:30;6.00;99.90
19970;DHT22;10146;47.754;9.566;2023-02-13T15:58:57;5.80;99.90
19970;DHT22;10146;47.754;9.566;2023-02-13T16:01:23;5.40;99.90
19970;DHT22;10146;47.754;9.566;2023-02-13T16:04:01;5.30;99.90
19970;DHT22;10146;47.754;9.566;2023-02-13T16:06:28;5.00;99.90
19970;DHT22;10146;47.754;9.566;2023-02-13T16:08:56;5.00;99.90
19970;DHT22;10146;47.754;9.566;2023-02-13T16:11:46;5.00;99.90
19970;DHT22;10146;47.754;9.566;2023-02-13T16:14:20;4.80;99.90
19970;DHT22;10146;47.754;9.566;2023-02-13T16:16:55;4.70;99.90
19970;DHT22;10146;47.754;9.566;2023-02-13T16:21:52;4.50;99.90
19970;DHT22;10146;47.754;9.566;2023-02-13T16:24:19;4.40;99.90
19970;DHT22;10146;47.754;9.566;2023-02-13T16:26:45;4.20;99.90
19970;DHT22;10146;47.754;9.566;2023-02-13T16:29:18;4.20;99.90
19970;DHT22;10146;47.754;9.566;2023-02-13T16:31:45;4.10;99.90
19970;DHT22;10146;47.754;9.566;2023-02-13T16:34:25;4.10;99.90
19970;DHT22;10146;47.754;9.566;2023-02-13T16:36:52;3.90;99.90
19970;DHT22;10146;47.754;9.566;2023-02-13T16:41:51;3.70;99.90
19970;DHT22;10146;47.754;9.566;2023-02-13T16:44:30;3.60;99.90
19970;DHT22;10146;47.754;9.566;2023-02-13T16:46:59;3.60;99.90
19970;DHT22;10146;47.754;9.566;2023-02-13T16:49:33;3.50;99.90
19970;DHT22;10146;47.754;9.566;2023-02-13T16:54:58;3.00;99.90
19970;DHT22;10146;47.754;9.566;2023-02-13T16:57:30;2.90;99.90
19970;DHT22;10146;47.754;9.566;2023-02-13T17:00:14;3.00;99.90
19970;DHT22;10146;47.754;9.566;2023-02-13T17:02:41;2.90;99.90
19970;DHT22;10146;47.754;9.566;2023-02-13T17:07:43;2.90;99.90
19970;DHT22;10146;47.754;9.566;2023-02-13T17:10:34;2.80;99.90
19970;DHT22;10146;47.754;9.566;2023-02-13T17:13:20;2.80;99.90
19970;DHT22;10146;47.754;9.566;2023-02-13T17:15:48;2.60;99.90
19970;DHT22;10146;47.754;9.566;2023-02-13T17:18:14;2.60;99.90
19970;DHT22;10146;47.754;9.566;2023-02-13T17:20:41;2.50;99.90
19970;DHT22;10146;47.754;9.566;2023-02-13T17:23:13;2.50;99.90
19970;DHT22;10146;47.754;9.566;2023-02-13T17:25:41;2.40;99.90
19970;DHT22;10146;47.754;9.566;2023-02-13T17:28:19;2.50;99.90
19970;DHT22;10146;47.754;9.566;2023-02-13T17:30:46;2.50;99.90
19970;DHT22;10146;47.754;9.566;2023-02-13T17:33:14;2.50;99.90
19970;DHT22;10146;47.754;9.566;2023-02-13T17:35:41;2.60;99.90
19970;DHT22;10146;47.754;9.566;2023-02-13T17:38:08;2.70;99.90
19970;DHT22;10146;47.754;9.566;2023-02-13T17:40:34;2.70;99.90
19970;DHT22;10146;47.754;9.566;2023-02-13T17:43:00;2.70;99.90
19970;DHT22;10146;47.754;9.566;2023-02-13T17:45:28;2.80;99.90
19970;DHT22;10146;47.754;9.566;2023-02-13T17:47:55;2.70;99.90
19970;DHT22;10146;47.754;9.566;2023-02-13T17:50:22;2.60;99.90
19970;DHT22;10146;47.754;9.566;2023-02-13T17:52:48;2.70;99.90
19970;DHT22;10146;47.754;9.566;2023-02-13T17:55:17;2.80;99.90
19970;DHT22;10146;47.754;9.566;2023-02-13T17:57:43;2.80;99.90
19970;DHT22;10146;47.754;9.566;2023-02-13T18:00:09;2.80;99.90
19970;DHT22;10146;47.754;9.566;2023-02-13T18:02:35;2.80;99.90
19970;DHT22;10146;47.754;9.566;2023-02-13T18:05:00;2.80;99.90
19970;DHT22;10146;47.754;9.566;2023-02-13T18:07:26;2.70;99.90
19970;DHT22;10146;47.754;9.566;2023-02-13T18:09:51;2.80;99.90
19970;DHT22;10146;47.754;9.566;2023-02-13T18:12:22;2.80;99.90
19970;DHT22;10146;47.754;9.566;2023-02-13T18:14:49;2.90;99.90
19970;DHT22;10146;47.754;9.566;2023-02-13T18:17:16;2.80;99.90
19970;DHT22;10146;47.754;9.566;2023-02-13T18:19:42;2.80;99.90
19970;DHT22;10146;47.754;9.566;2023-02-13T18:22:08;2.70;99.90
19970;DHT22;10146;47.754;9.566;2023-02-13T18:24:36;2.80;99.90
19970;DHT22;10146;47.754;9.566;2023-02-13T18:27:03;2.90;99.90
19970;DHT22;10146;47.754;9.566;2023-02-13T18:29:29;2.90;99.90
19970;DHT22;10146;47.754;9.566;2023-02-13T18:31:54;2.90;99.90
19970;DHT22;10146;47.754;9.566;2023-02-13T18:34:22;2.90;99.90
19970;DHT22;10146;47.754;9.566;2023-02-13T18:36:48;2.90;99.90
19970;DHT22;10146;47.754;9.566;2023-02-13T18:39:15;2.80;99.90
19970;DHT22;10146;47.754;9.566;2023-02-13T18:41:41;2.80;99.90
19970;DHT22;10146;47.754;9.566;2023-02-13T18:44:06;2.90;99.90
19970;DHT22;10146;47.754;9.566;2023-02-13T18:46:32;2.90;99.90
19970;DHT22;10146;47.754;9.566;2023-02-13T18:48:57;2.80;99.90